Time;durP1;ratioP1;P1;durP2;ratioP2;P2;SDS_P1;SDS_P2;PMS_P1;PMS_P2;Temp;Humidity;BMP_temperature;BMP_pressure;BME280_temperature;BME280_humidity;BME280_pressure;Samples;Min_cycle;Max_cycle;Signal;HPM_P1;HPM_P2
2024/04/06 00:01:29;;;;;;;;;77.50;52.75;;;;;;;;10386420;28;43215;-59
2024/04/06 00:06:33;;;;;;;;;77.50;55.25;;;;;;;;10388002;28;43586;-59
2024/04/06 00:11:37;;;;;;;;;74.00;52.00;;;;;;;;10385941;28;43292;-59
2024/04/06 00:16:41;;;;;;;;;74.75;52.00;;;;;;;;10370353;28;43111;-59
2024/04/06 00:21:45;;;;;;;;;81.75;54.25;;;;;;;;10385000;28;43144;-59
2024/04/06 00:26:49;;;;;;;;;80.50;61.00;;;;;;;;10384645;28;43742;-59
2024/04/06 00:31:52;;;;;;;;;95.00;70.00;;;;;;;;10386437;28;43260;-60
2024/04/06 00:36:56;;;;;;;;;104.00;77.50;;;;;;;;10384772;28;45451;-60
2024/04/06 00:41:59;;;;;;;;;96.50;75.75;;;;;;;;10384621;28;43207;-60
2024/04/06 00:47:03;;;;;;;;;96.00;69.25;;;;;;;;10385691;28;48173;-59
2024/04/06 00:52:07;;;;;;;;;99.50;73.75;;;;;;;;10387879;28;43669;-62
2024/04/06 00:57:12;;;;;;;;;86.00;63.25;;;;;;;;10395666;28;43058;-61
2024/04/06 01:02:15;;;;;;;;;79.50;62.00;;;;;;;;10397167;28;43041;-59
2024/04/06 01:07:20;;;;;;;;;85.25;65.50;;;;;;;;10384535;28;44187;-58
2024/04/06 01:12:23;;;;;;;;;90.50;65.75;;;;;;;;10389815;28;42938;-61
2024/04/06 01:17:26;;;;;;;;;87.50;65.25;;;;;;;;10391011;28;43282;-60
2024/04/06 01:22:29;;;;;;;;;88.75;66.75;;;;;;;;10391359;28;43675;-60
2024/04/06 01:27:33;;;;;;;;;89.75;70.00;;;;;;;;10389034;28;43087;-60
2024/04/06 01:32:36;;;;;;;;;93.00;71.25;;;;;;;;10393060;28;43736;-59
2024/04/06 01:37:41;;;;;;;;;79.75;61.75;;;;;;;;10402550;28;44097;-63
2024/04/06 01:42:44;;;;;;;;;97.00;66.25;;;;;;;;10459819;28;43007;-63
2024/04/06 01:47:49;;;;;;;;;78.00;62.00;;;;;;;;10455019;28;43064;-61
2024/04/06 01:52:53;;;;;;;;;86.00;61.00;;;;;;;;10455100;28;43143;-59
2024/04/06 01:57:57;;;;;;;;;90.75;71.00;;;;;;;;10457422;28;43756;-61
2024/04/06 02:03:00;;;;;;;;;89.25;69.50;;;;;;;;10457833;28;43366;-61
2024/04/06 02:08:04;;;;;;;;;96.25;67.75;;;;;;;;10443699;28;44418;-62
2024/04/06 02:13:07;;;;;;;;;94.25;68.50;;;;;;;;10440921;28;43025;-61
2024/04/06 02:18:11;;;;;;;;;88.25;62.75;;;;;;;;10450621;28;44139;-62
2024/04/06 02:23:14;;;;;;;;;84.25;61.75;;;;;;;;10453957;28;42947;-61
2024/04/06 02:28:17;;;;;;;;;82.25;62.25;;;;;;;;10452537;28;43368;-62
2024/04/06 02:33:21;;;;;;;;;91.00;69.75;;;;;;;;10459668;28;44102;-63
2024/04/06 02:38:26;;;;;;;;;90.25;62.00;;;;;;;;10460525;28;42961;-62
2024/04/06 02:43:29;;;;;;;;;90.25;61.75;;;;;;;;10454899;28;43646;-63
2024/04/06 02:48:33;;;;;;;;;86.50;62.00;;;;;;;;10432669;28;44618;-64
2024/04/06 02:53:36;;;;;;;;;80.75;61.00;;;;;;;;10451692;28;43748;-63
2024/04/06 02:58:41;;;;;;;;;82.00;59.00;;;;;;;;10463986;28;43014;-65
2024/04/06 03:03:44;;;;;;;;;77.25;56.00;;;;;;;;10455161;28;43025;-65
2024/04/06 03:08:47;;;;;;;;;81.50;58.25;;;;;;;;10436629;28;45306;-65
2024/04/06 03:13:51;;;;;;;;;81.00;56.00;;;;;;;;10453905;28;43256;-65
2024/04/06 03:18:55;;;;;;;;;76.25;52.00;;;;;;;;10453123;28;44552;-63
2024/04/06 03:23:58;;;;;;;;;78.50;51.00;;;;;;;;10444428;28;43323;-63
2024/04/06 03:29:02;;;;;;;;;73.50;50.50;;;;;;;;10490880;28;43813;-62
2024/04/06 03:34:06;;;;;;;;;73.00;51.50;;;;;;;;10487564;28;43712;-63
2024/04/06 03:39:10;;;;;;;;;76.00;52.00;;;;;;;;10492689;28;43347;-63
2024/04/06 03:44:13;;;;;;;;;77.50;49.25;;;;;;;;10495766;28;43098;-63
2024/04/06 03:49:17;;;;;;;;;77.75;51.00;;;;;;;;10494356;28;43776;-63
2024/04/06 03:54:20;;;;;;;;;73.00;50.00;;;;;;;;10495321;28;43024;-63
2024/04/06 03:59:24;;;;;;;;;72.75;47.75;;;;;;;;10495008;28;43760;-63
2024/04/06 04:04:28;;;;;;;;;72.75;51.25;;;;;;;;10468579;28;43215;-63
2024/04/06 04:09:33;;;;;;;;;71.25;48.25;;;;;;;;10494269;28;43021;-63
2024/04/06 04:14:36;;;;;;;;;70.50;48.00;;;;;;;;10493532;28;43382;-62
2024/04/06 04:19:40;;;;;;;;;69.50;49.25;;;;;;;;10487458;28;43810;-63
2024/04/06 04:24:44;;;;;;;;;70.25;47.75;;;;;;;;10475978;28;42985;-62
2024/04/06 04:29:48;;;;;;;;;69.25;48.75;;;;;;;;10457298;28;42985;-63
2024/04/06 04:34:51;;;;;;;;;64.50;45.75;;;;;;;;10459599;28;43090;-63
2024/04/06 04:39:57;;;;;;;;;68.25;45.25;;;;;;;;10458035;28;43627;-63
2024/04/06 04:45:14;;;;;;;;;72.25;48.00;;;;;;;;10501682;28;43254;-63
2024/04/06 04:50:17;;;;;;;;;65.00;43.00;;;;;;;;10493089;28;49639;-63
2024/04/06 04:55:21;;;;;;;;;68.00;45.75;;;;;;;;10459147;28;43787;-63
2024/04/06 05:00:24;;;;;;;;;63.00;42.50;;;;;;;;10459745;28;43061;-63
2024/04/06 05:05:28;;;;;;;;;66.75;44.00;;;;;;;;10459694;28;43127;-63
2024/04/06 05:10:31;;;;;;;;;62.25;44.50;;;;;;;;10493013;28;42949;-64
2024/04/06 05:15:34;;;;;;;;;67.50;41.75;;;;;;;;10500142;27;44096;-63
2024/04/06 05:20:39;;;;;;;;;63.00;41.00;;;;;;;;10499791;28;50200;-64
2024/04/06 05:25:43;;;;;;;;;59.00;38.75;;;;;;;;10472197;28;42948;-64
2024/04/06 05:30:48;;;;;;;;;62.75;41.00;;;;;;;;10458466;28;43366;-64
2024/04/06 05:35:51;;;;;;;;;60.50;38.50;;;;;;;;10469664;28;49561;-63
2024/04/06 05:40:56;;;;;;;;;55.50;34.50;;;;;;;;10432307;28;48921;-64
2024/04/06 05:46:03;;;;;;;;;50.25;33.25;;;;;;;;10391372;28;49435;-63
2024/04/06 05:51:06;;;;;;;;;55.00;35.75;;;;;;;;10390990;28;43017;-63
2024/04/06 05:56:10;;;;;;;;;51.00;35.75;;;;;;;;10390734;28;44455;-63
2024/04/06 06:01:14;;;;;;;;;50.25;31.75;;;;;;;;10390571;28;43478;-63
2024/04/06 06:06:17;;;;;;;;;48.75;31.50;;;;;;;;10412213;28;42927;-63
2024/04/06 06:11:21;;;;;;;;;48.00;30.50;;;;;;;;10431023;28;43809;-62
2024/04/06 06:16:24;;;;;;;;;50.25;33.75;;;;;;;;10431775;28;43498;-62
2024/04/06 06:21:28;;;;;;;;;49.00;33.75;;;;;;;;10431279;28;45162;-62
2024/04/06 06:26:32;;;;;;;;;49.25;31.25;;;;;;;;10395157;28;49231;-62
2024/04/06 06:31:35;;;;;;;;;50.75;32.00;;;;;;;;10381111;28;43197;-62
2024/04/06 06:36:39;;;;;;;;;40.50;24.75;;;;;;;;10390005;28;43012;-63
2024/04/06 06:41:45;;;;;;;;;42.50;24.50;;;;;;;;10423870;28;44403;-61
2024/04/06 06:46:48;;;;;;;;;46.00;27.50;;;;;;;;10430463;28;43131;-62
2024/04/06 06:51:52;;;;;;;;;41.25;26.00;;;;;;;;10414075;28;43785;-62
2024/04/06 06:56:56;;;;;;;;;42.00;26.75;;;;;;;;10430368;28;43761;-62
2024/04/06 07:02:00;;;;;;;;;46.75;26.25;;;;;;;;10429322;28;43110;-63
2024/04/06 07:07:04;;;;;;;;;36.00;20.00;;;;;;;;10428514;28;42877;-63
2024/04/06 07:12:07;;;;;;;;;45.00;26.25;;;;;;;;10440158;28;42956;-63
2024/04/06 07:17:10;;;;;;;;;40.25;22.25;;;;;;;;10431252;28;43459;-63
2024/04/06 07:22:14;;;;;;;;;37.25;23.00;;;;;;;;10430437;28;43003;-63
2024/04/06 07:27:18;;;;;;;;;39.25;22.75;;;;;;;;10423707;28;43011;-63
2024/04/06 07:32:21;;;;;;;;;43.75;19.00;;;;;;;;10412161;28;44452;-63
2024/04/06 07:37:24;;;;;;;;;33.75;18.25;;;;;;;;10430680;28;43374;-62
2024/04/06 07:42:28;;;;;;;;;32.75;19.75;;;;;;;;10426045;28;43486;-62
2024/04/06 07:47:31;;;;;;;;;35.50;16.00;;;;;;;;10428812;28;43490;-61
2024/04/06 07:52:35;;;;;;;;;36.25;19.50;;;;;;;;10428374;28;42988;-63
2024/04/06 07:57:38;;;;;;;;;33.00;17.75;;;;;;;;10427616;28;43137;-63
2024/04/06 08:02:43;;;;;;;;;35.00;19.75;;;;;;;;10424014;28;43115;-61
2024/04/06 08:07:46;;;;;;;;;29.50;15.25;;;;;;;;10405759;28;43111;-61
2024/04/06 08:12:53;;;;;;;;;31.00;14.50;;;;;;;;10428541;28;43079;-61
2024/04/06 08:17:56;;;;;;;;;32.75;16.50;;;;;;;;10428468;28;43023;-61
2024/04/06 08:23:00;;;;;;;;;30.75;15.25;;;;;;;;10405195;28;45227;-61
2024/04/06 08:28:04;;;;;;;;;38.25;18.25;;;;;;;;10427790;28;43592;-61
2024/04/06 08:33:07;;;;;;;;;32.25;19.75;;;;;;;;10426700;28;44690;-62
2024/04/06 08:38:11;;;;;;;;;29.75;13.50;;;;;;;;10431605;28;43008;-62
2024/04/06 08:43:15;;;;;;;;;34.75;14.50;;;;;;;;10476466;28;44436;-62
2024/04/06 08:48:19;;;;;;;;;34.25;15.75;;;;;;;;10494532;28;42995;-62
2024/04/06 08:53:23;;;;;;;;;27.50;12.75;;;;;;;;10476605;28;44399;-62
2024/04/06 08:58:27;;;;;;;;;27.00;11.75;;;;;;;;10493349;28;43477;-62
2024/04/06 09:03:32;;;;;;;;;27.25;12.50;;;;;;;;10492913;28;44186;-62
2024/04/06 09:08:37;;;;;;;;;30.00;14.25;;;;;;;;10487190;28;43343;-62
2024/04/06 09:13:44;;;;;;;;;25.25;9.00;;;;;;;;10459964;28;43794;-62
2024/04/06 09:18:47;;;;;;;;;28.75;14.00;;;;;;;;10442435;28;43267;-62
2024/04/06 09:23:56;;;;;;;;;31.50;15.25;;;;;;;;10457936;28;43090;-62
2024/04/06 09:29:01;;;;;;;;;24.50;9.75;;;;;;;;10458680;28;43644;-62
2024/04/06 09:34:05;;;;;;;;;28.00;11.25;;;;;;;;10457570;28;44229;-62
2024/04/06 09:39:10;;;;;;;;;27.25;10.75;;;;;;;;10477502;28;44529;-62
2024/04/06 09:44:14;;;;;;;;;28.75;13.50;;;;;;;;10499008;28;43024;-62
2024/04/06 09:49:18;;;;;;;;;31.75;12.75;;;;;;;;10477638;28;43937;-62
2024/04/06 09:54:21;;;;;;;;;24.75;10.00;;;;;;;;10457079;28;43044;-62
2024/04/06 09:59:28;;;;;;;;;27.75;12.75;;;;;;;;10457030;28;43690;-62
2024/04/06 10:04:36;;;;;;;;;27.50;11.50;;;;;;;;10445280;28;42954;-62
2024/04/06 10:09:39;;;;;;;;;25.75;12.75;;;;;;;;10464130;28;43278;-62
2024/04/06 10:14:47;;;;;;;;;28.00;10.00;;;;;;;;10481713;28;44766;-62
2024/04/06 10:19:50;;;;;;;;;24.00;10.00;;;;;;;;10446246;28;43747;-62
2024/04/06 10:25:01;;;;;;;;;26.25;11.25;;;;;;;;10457907;28;43138;-62
2024/04/06 10:30:05;;;;;;;;;25.50;10.50;;;;;;;;10497736;28;42922;-63
2024/04/06 10:35:09;;;;;;;;;28.75;11.25;;;;;;;;10492605;28;42977;-62
2024/04/06 10:40:14;;;;;;;;;25.25;10.50;;;;;;;;10497654;28;43300;-63
2024/04/06 10:45:18;;;;;;;;;23.25;9.25;;;;;;;;10438718;27;43670;-62
2024/04/06 10:50:21;;;;;;;;;25.25;10.75;;;;;;;;10457779;28;48784;-63
2024/04/06 10:55:26;;;;;;;;;24.50;8.00;;;;;;;;10454829;28;43021;-62
2024/04/06 11:00:31;;;;;;;;;24.00;9.25;;;;;;;;10438588;28;42926;-62
2024/04/06 11:05:35;;;;;;;;;22.50;6.50;;;;;;;;10448977;28;42980;-62
2024/04/06 11:10:39;;;;;;;;;28.50;11.00;;;;;;;;10455363;28;42947;-62
2024/04/06 11:15:45;;;;;;;;;21.50;8.75;;;;;;;;10439758;28;42917;-63
2024/04/06 11:20:49;;;;;;;;;23.00;8.50;;;;;;;;10412789;28;42979;-62
2024/04/06 11:25:52;;;;;;;;;28.50;10.75;;;;;;;;10447829;28;42971;-62
2024/04/06 11:30:58;;;;;;;;;27.75;11.25;;;;;;;;10454047;28;42952;-63
2024/04/06 11:36:03;;;;;;;;;25.00;10.50;;;;;;;;10452906;28;42970;-62
2024/04/06 11:41:07;;;;;;;;;21.75;8.75;;;;;;;;10410790;28;45364;-62
2024/04/06 11:46:11;;;;;;;;;25.75;11.50;;;;;;;;10412537;28;45286;-62
2024/04/06 11:51:15;;;;;;;;;26.00;10.00;;;;;;;;10426329;28;42955;-62
2024/04/06 11:56:18;;;;;;;;;30.50;14.50;;;;;;;;10423052;28;44096;-63
2024/04/06 12:01:22;;;;;;;;;26.00;11.00;;;;;;;;10427628;28;42972;-62
2024/04/06 12:06:27;;;;;;;;;28.25;11.75;;;;;;;;10423413;28;44255;-62
2024/04/06 12:11:30;;;;;;;;;27.50;12.50;;;;;;;;10429547;28;43681;-62
2024/04/06 12:16:33;;;;;;;;;22.50;9.50;;;;;;;;10428368;28;42992;-63
2024/04/06 12:21:37;;;;;;;;;27.25;13.00;;;;;;;;10422648;28;43243;-62
2024/04/06 12:26:41;;;;;;;;;26.00;11.25;;;;;;;;10427142;28;43770;-62
2024/04/06 12:31:44;;;;;;;;;26.75;11.75;;;;;;;;10428748;28;43331;-62
2024/04/06 12:36:47;;;;;;;;;25.25;10.75;;;;;;;;10427977;28;42973;-61
2024/04/06 12:41:51;;;;;;;;;26.75;13.50;;;;;;;;10381377;28;44357;-62
2024/04/06 12:46:55;;;;;;;;;32.25;17.75;;;;;;;;10385958;28;43601;-63
2024/04/06 12:51:59;;;;;;;;;35.75;9.50;;;;;;;;10392242;28;43172;-63
2024/04/06 13:02:24;;;;;;;;;33.50;15.25;;;;;;;;10397375;28;44656;-62
2024/04/06 13:07:28;;;;;;;;;32.75;18.25;;;;;;;;10400947;28;43059;-63
2024/04/06 13:12:32;;;;;;;;;31.50;17.25;;;;;;;;10390587;28;42993;-62
2024/04/06 13:17:37;;;;;;;;;38.25;16.50;;;;;;;;10389895;28;44436;-63
2024/04/06 13:22:41;;;;;;;;;31.25;13.75;;;;;;;;10390876;28;43748;-65
2024/04/06 13:27:44;;;;;;;;;36.25;17.50;;;;;;;;10393939;28;45831;-63
2024/04/06 13:32:48;;;;;;;;;40.00;15.00;;;;;;;;10390156;28;43119;-63
2024/04/06 13:37:52;;;;;;;;;36.25;14.25;;;;;;;;10394778;28;42973;-63
2024/04/06 13:42:57;;;;;;;;;35.75;12.00;;;;;;;;10457190;28;42980;-63
2024/04/06 13:48:00;;;;;;;;;36.00;14.00;;;;;;;;10467025;28;42977;-63
2024/04/06 13:53:04;;;;;;;;;33.00;14.00;;;;;;;;10492407;28;42888;-63
2024/04/06 13:58:08;;;;;;;;;33.25;16.00;;;;;;;;10491122;28;43163;-63
2024/04/06 14:03:13;;;;;;;;;33.50;13.25;;;;;;;;10499037;28;42947;-63
2024/04/06 14:08:17;;;;;;;;;36.00;17.00;;;;;;;;10472585;28;43174;-63
2024/04/06 14:13:20;;;;;;;;;30.50;13.25;;;;;;;;10457161;28;44458;-63
2024/04/06 14:18:24;;;;;;;;;29.25;14.75;;;;;;;;10457064;28;43035;-63
2024/04/06 14:23:29;;;;;;;;;29.50;14.50;;;;;;;;10457308;28;43147;-63
2024/04/06 14:28:32;;;;;;;;;28.25;14.50;;;;;;;;10456482;28;43647;-63
2024/04/06 14:33:36;;;;;;;;;33.50;15.50;;;;;;;;10450750;28;43717;-63
2024/04/06 14:38:39;;;;;;;;;25.75;12.25;;;;;;;;10454915;28;43998;-63
2024/04/06 14:43:45;;;;;;;;;35.50;14.75;;;;;;;;10455792;28;43111;-63
2024/04/06 14:48:49;;;;;;;;;32.50;12.50;;;;;;;;10454964;28;43213;-63
2024/04/06 14:53:52;;;;;;;;;33.50;16.00;;;;;;;;10453977;28;43221;-63
2024/04/06 14:58:55;;;;;;;;;33.50;14.50;;;;;;;;10455956;28;43028;-63
2024/04/06 15:03:59;;;;;;;;;36.75;15.25;;;;;;;;10459735;28;42934;-63
2024/04/06 15:09:02;;;;;;;;;34.00;15.50;;;;;;;;10488767;28;42995;-63
2024/04/06 15:14:06;;;;;;;;;30.00;14.00;;;;;;;;10445545;28;43754;-63
2024/04/06 15:19:10;;;;;;;;;30.00;13.00;;;;;;;;10454339;28;42909;-63
2024/04/06 15:24:15;;;;;;;;;37.00;16.25;;;;;;;;10454639;28;42937;-63
2024/04/06 15:29:18;;;;;;;;;28.00;11.50;;;;;;;;10453900;28;44025;-63
2024/04/06 15:34:21;;;;;;;;;28.00;13.00;;;;;;;;10461858;28;43094;-63
2024/04/06 15:39:25;;;;;;;;;29.75;14.00;;;;;;;;10495370;28;43980;-63
2024/04/06 15:44:31;;;;;;;;;31.00;12.25;;;;;;;;10479621;28;43599;-63
2024/04/06 15:49:35;;;;;;;;;29.25;16.25;;;;;;;;10494618;28;43037;-63
2024/04/06 15:54:38;;;;;;;;;31.25;14.50;;;;;;;;10478509;28;42997;-64
2024/04/06 15:59:41;;;;;;;;;33.25;17.00;;;;;;;;10494839;28;42924;-63
2024/04/06 16:04:45;;;;;;;;;29.25;13.25;;;;;;;;10468603;28;43001;-63
2024/04/06 16:09:49;;;;;;;;;32.50;15.75;;;;;;;;10453501;28;43601;-63
2024/04/06 16:14:52;;;;;;;;;38.50;17.50;;;;;;;;10453424;28;43003;-63
2024/04/06 16:19:56;;;;;;;;;32.75;16.25;;;;;;;;10466321;28;43079;-63
2024/04/06 16:25:00;;;;;;;;;31.25;14.50;;;;;;;;10474956;28;43008;-63
2024/04/06 16:30:03;;;;;;;;;32.50;17.25;;;;;;;;10459127;28;43014;-63
2024/04/06 16:35:08;;;;;;;;;30.25;12.25;;;;;;;;10459635;28;42976;-63
2024/04/06 16:40:12;;;;;;;;;31.50;14.50;;;;;;;;10458468;28;43717;-63
2024/04/06 16:45:16;;;;;;;;;34.25;16.50;;;;;;;;10496088;28;44512;-63
2024/04/06 16:50:21;;;;;;;;;31.00;14.50;;;;;;;;10502719;28;42972;-63
2024/04/06 16:55:24;;;;;;;;;33.75;15.75;;;;;;;;10501512;28;44763;-63
2024/04/06 17:00:28;;;;;;;;;37.75;18.25;;;;;;;;10502033;28;43008;-63
2024/04/06 17:05:32;;;;;;;;;36.00;17.75;;;;;;;;10501398;28;43254;-63
2024/04/06 17:10:36;;;;;;;;;27.50;14.75;;;;;;;;10497399;28;43821;-63
2024/04/06 17:15:42;;;;;;;;;34.25;18.00;;;;;;;;10501759;28;49783;-63
2024/04/06 17:20:46;;;;;;;;;41.00;16.00;;;;;;;;10501006;28;49500;-63
2024/04/06 17:25:50;;;;;;;;;28.50;12.00;;;;;;;;10472835;28;43014;-63
2024/04/06 17:30:54;;;;;;;;;28.75;15.00;;;;;;;;10459245;28;43846;-63
2024/04/06 17:35:57;;;;;;;;;33.75;17.25;;;;;;;;10461580;28;43068;-63
2024/04/06 17:41:01;;;;;;;;;26.25;12.25;;;;;;;;10499327;28;42986;-63
2024/04/06 17:46:05;;;;;;;;;31.00;13.00;;;;;;;;10500347;28;43682;-63
2024/04/06 17:51:08;;;;;;;;;29.25;13.75;;;;;;;;10500430;27;43543;-63
2024/04/06 17:56:12;;;;;;;;;33.25;14.50;;;;;;;;10499208;27;43130;-63
2024/04/06 18:01:16;;;;;;;;;29.00;13.00;;;;;;;;10498844;28;43591;-63
2024/04/06 18:06:22;;;;;;;;;33.75;13.50;;;;;;;;10494031;27;43092;-63
2024/04/06 18:11:26;;;;;;;;;25.25;12.75;;;;;;;;10499168;28;43016;-63
2024/04/06 18:16:29;;;;;;;;;29.50;10.50;;;;;;;;10498872;28;43024;-62
2024/04/06 18:21:33;;;;;;;;;24.50;7.00;;;;;;;;10498182;28;43124;-62
2024/04/06 18:26:36;;;;;;;;;25.75;12.50;;;;;;;;10462112;28;43838;-62
2024/04/06 18:31:40;;;;;;;;;28.00;12.00;;;;;;;;10441012;28;44098;-62
2024/04/06 18:36:43;;;;;;;;;29.25;12.25;;;;;;;;10479396;28;43519;-62
2024/04/06 18:41:47;;;;;;;;;30.75;12.25;;;;;;;;10448020;28;42943;-62
2024/04/06 18:46:51;;;;;;;;;29.75;12.25;;;;;;;;10430197;28;42892;-62
2024/04/06 18:51:54;;;;;;;;;26.25;11.00;;;;;;;;10394198;28;42972;-62
2024/04/06 18:56:58;;;;;;;;;23.50;10.00;;;;;;;;10390151;28;42942;-62
2024/04/06 19:02:02;;;;;;;;;24.75;11.00;;;;;;;;10389476;28;43755;-63
2024/04/06 19:07:05;;;;;;;;;26.25;12.25;;;;;;;;10372590;28;43753;-62
2024/04/06 19:12:09;;;;;;;;;25.25;11.75;;;;;;;;10389893;28;43093;-63
2024/04/06 19:17:12;;;;;;;;;28.75;10.50;;;;;;;;10387675;28;42973;-63
2024/04/06 19:22:15;;;;;;;;;28.25;11.00;;;;;;;;10387931;28;43028;-62
2024/04/06 19:27:20;;;;;;;;;32.25;11.50;;;;;;;;10379889;28;43926;-63
2024/04/06 19:32:23;;;;;;;;;27.00;10.25;;;;;;;;10388484;28;43781;-63
2024/04/06 19:37:27;;;;;;;;;24.50;10.75;;;;;;;;10387053;28;43723;-63
2024/04/06 19:42:31;;;;;;;;;25.00;9.75;;;;;;;;10418031;28;44631;-63
2024/04/06 19:47:36;;;;;;;;;30.00;10.75;;;;;;;;10428785;28;43242;-63
2024/04/06 19:52:39;;;;;;;;;28.25;12.25;;;;;;;;10429740;28;43083;-63
2024/04/06 19:57:45;;;;;;;;;29.25;12.00;;;;;;;;10427862;28;42933;-63
2024/04/06 20:02:48;;;;;;;;;30.00;10.75;;;;;;;;10429136;28;43001;-63
2024/04/06 20:07:52;;;;;;;;;25.50;9.75;;;;;;;;10425243;28;44366;-63
2024/04/06 20:12:56;;;;;;;;;27.50;9.50;;;;;;;;10419746;28;42926;-63
2024/04/06 20:17:59;;;;;;;;;31.50;13.25;;;;;;;;10428622;28;43007;-63
2024/04/06 20:28:26;;;;;;;;;20.75;8.25;;;;;;;;10427646;28;44059;-63
2024/04/06 20:33:31;;;;;;;;;24.00;8.75;;;;;;;;10424590;28;43863;-63
2024/04/06 20:38:35;;;;;;;;;28.50;10.00;;;;;;;;10427519;28;43092;-63
2024/04/06 20:43:38;;;;;;;;;24.25;6.75;;;;;;;;10427238;28;43160;-63
2024/04/06 20:48:44;;;;;;;;;23.50;8.25;;;;;;;;10424207;28;42958;-63
2024/04/06 20:53:48;;;;;;;;;25.50;11.00;;;;;;;;10427278;28;43175;-63
2024/04/06 20:58:53;;;;;;;;;25.50;9.50;;;;;;;;10410694;28;43573;-63
2024/04/06 21:03:57;;;;;;;;;23.25;8.00;;;;;;;;10426825;28;43247;-63
2024/04/06 21:09:01;;;;;;;;;24.00;7.25;;;;;;;;10418325;28;43222;-63
2024/04/06 21:14:05;;;;;;;;;24.75;9.00;;;;;;;;10426589;28;43775;-63
2024/04/06 21:19:08;;;;;;;;;28.75;8.25;;;;;;;;10403368;28;42980;-63
2024/04/06 21:24:12;;;;;;;;;23.50;7.50;;;;;;;;10390789;28;42982;-63
2024/04/06 21:29:16;;;;;;;;;22.75;8.75;;;;;;;;10390948;28;43961;-63
2024/04/06 21:34:20;;;;;;;;;25.00;7.50;;;;;;;;10396485;28;43041;-63
2024/04/06 21:39:23;;;;;;;;;24.00;6.50;;;;;;;;10387037;28;44207;-63
2024/04/06 21:44:27;;;;;;;;;22.75;7.00;;;;;;;;10458925;28;43142;-63
2024/04/06 21:49:31;;;;;;;;;19.75;6.00;;;;;;;;10454754;28;42934;-63
2024/04/06 21:54:35;;;;;;;;;19.00;6.00;;;;;;;;10422629;28;43136;-63
2024/04/06 21:59:38;;;;;;;;;22.75;7.50;;;;;;;;10432473;28;43797;-61
2024/04/06 22:04:41;;;;;;;;;20.00;5.50;;;;;;;;10456935;28;43468;-64
2024/04/06 22:09:45;;;;;;;;;27.00;7.00;;;;;;;;10461261;28;43228;-62
2024/04/06 22:14:49;;;;;;;;;27.00;7.25;;;;;;;;10457335;28;43565;-62
2024/04/06 22:19:52;;;;;;;;;24.25;7.75;;;;;;;;10456668;28;43543;-62
2024/04/06 22:24:56;;;;;;;;;23.75;8.00;;;;;;;;10460308;28;43275;-62
2024/04/06 22:30:01;;;;;;;;;19.00;6.00;;;;;;;;10424019;28;44129;-61
2024/04/06 22:35:04;;;;;;;;;22.25;6.25;;;;;;;;10442642;28;42967;-60
2024/04/06 22:40:08;;;;;;;;;20.75;6.00;;;;;;;;10464102;28;43430;-62
2024/04/06 22:45:14;;;;;;;;;24.50;6.50;;;;;;;;10448876;28;43056;-62
2024/04/06 22:50:17;;;;;;;;;22.00;6.25;;;;;;;;10453004;28;49584;-63
2024/04/06 22:55:20;;;;;;;;;19.50;5.50;;;;;;;;10459874;28;42932;-63
2024/04/06 23:00:23;;;;;;;;;20.50;5.50;;;;;;;;10467557;28;42975;-62
2024/04/06 23:05:27;;;;;;;;;21.25;5.75;;;;;;;;10461810;28;43494;-62
2024/04/06 23:10:31;;;;;;;;;21.00;6.25;;;;;;;;10456549;28;43009;-63
2024/04/06 23:15:34;;;;;;;;;26.00;6.25;;;;;;;;10462332;27;42952;-63
2024/04/06 23:20:37;;;;;;;;;28.75;9.50;;;;;;;;10468776;28;43597;-61
2024/04/06 23:25:42;;;;;;;;;23.75;7.25;;;;;;;;10456417;28;49510;-66
2024/04/06 23:30:46;;;;;;;;;25.00;7.25;;;;;;;;10454604;28;44308;-64
2024/04/06 23:35:50;;;;;;;;;25.50;9.50;;;;;;;;10452347;28;43210;-65
2024/04/06 23:40:53;;;;;;;;;23.75;9.00;;;;;;;;10467129;28;43977;-64
2024/04/06 23:46:02;;;;;;;;;28.25;9.50;;;;;;;;10460309;28;43301;-65
2024/04/06 23:51:05;;;;;;;;;39.50;8.25;;;;;;;;10453144;28;43480;-65
2024/04/06 23:56:08;;;;;;;;;30.25;7.25;;;;;;;;10455210;28;42896;-66
